sensor_id;sensor_type;location;lat;lon;timestamp;pressure;altitude;pressure_sealevel;temperature;humidity
83941;BME280;73976;68.386;23.636;2023-12-20T00:01:22;94231.75;;;-7.84;87.96
83941;BME280;73976;68.386;23.636;2023-12-20T00:03:51;94247.09;;;-7.76;88.21
83941;BME280;73976;68.386;23.636;2023-12-20T00:06:19;94235.31;;;-7.85;87.38
83941;BME280;73976;68.386;23.636;2023-12-20T00:08:47;94221.19;;;-7.81;87.80
83941;BME280;73976;68.386;23.636;2023-12-20T00:11:16;94199.34;;;-7.91;87.18
83941;BME280;73976;68.386;23.636;2023-12-20T00:13:44;94214.31;;;-7.80;87.33
83941;BME280;73976;68.386;23.636;2023-12-20T00:16:16;94212.88;;;-7.83;87.41
83941;BME280;73976;68.386;23.636;2023-12-20T00:18:44;94182.09;;;-7.97;88.15
83941;BME280;73976;68.386;23.636;2023-12-20T00:21:13;94072.06;;;-8.65;86.79
83941;BME280;73976;68.386;23.636;2023-12-20T00:23:41;94223.69;;;-7.72;86.71
83941;BME280;73976;68.386;23.636;2023-12-20T00:26:09;94243.75;;;-7.61;87.51
83941;BME280;73976;68.386;23.636;2023-12-20T00:28:37;94247.88;;;-7.52;87.63
83941;BME280;73976;68.386;23.636;2023-12-20T00:31:06;94165.88;;;-8.12;88.04
83941;BME280;73976;68.386;23.636;2023-12-20T00:33:34;94192.88;;;-7.87;88.26
83941;BME280;73976;68.386;23.636;2023-12-20T00:36:03;94256.47;;;-7.45;86.93
83941;BME280;73976;68.386;23.636;2023-12-20T00:38:31;94213.72;;;-7.68;87.78
83941;BME280;73976;68.386;23.636;2023-12-20T00:41:00;94231.13;;;-7.63;88.38
83941;BME280;73976;68.386;23.636;2023-12-20T00:43:28;94213.38;;;-7.64;87.57
83941;BME280;73976;68.386;23.636;2023-12-20T00:45:56;94221.06;;;-7.64;87.54
83941;BME280;73976;68.386;23.636;2023-12-20T00:48:25;94230.78;;;-7.60;88.15
83941;BME280;73976;68.386;23.636;2023-12-20T00:50:54;94250.25;;;-7.51;87.80
83941;BME280;73976;68.386;23.636;2023-12-20T00:53:23;94270.53;;;-7.41;87.48
83941;BME280;73976;68.386;23.636;2023-12-20T00:55:51;94241.16;;;-7.53;87.28
83941;BME280;73976;68.386;23.636;2023-12-20T00:58:19;94188.56;;;-7.87;86.93
83941;BME280;73976;68.386;23.636;2023-12-20T01:00:47;94254.44;;;-7.50;88.27
83941;BME280;73976;68.386;23.636;2023-12-20T01:03:15;94290.00;;;-7.32;88.09
83941;BME280;73976;68.386;23.636;2023-12-20T01:05:43;94237.97;;;-7.55;87.69
83941;BME280;73976;68.386;23.636;2023-12-20T01:08:11;94271.78;;;-7.37;87.90
83941;BME280;73976;68.386;23.636;2023-12-20T01:10:40;94263.81;;;-7.42;87.83
83941;BME280;73976;68.386;23.636;2023-12-20T01:13:09;94303.38;;;-7.22;87.55
83941;BME280;73976;68.386;23.636;2023-12-20T01:15:37;94272.13;;;-7.40;88.10
83941;BME280;73976;68.386;23.636;2023-12-20T01:18:05;94249.13;;;-7.48;88.08
83941;BME280;73976;68.386;23.636;2023-12-20T01:20:33;94222.84;;;-7.65;87.90
83941;BME280;73976;68.386;23.636;2023-12-20T01:23:02;94215.03;;;-7.72;88.36
83941;BME280;73976;68.386;23.636;2023-12-20T01:25:30;94258.69;;;-7.42;87.67
83941;BME280;73976;68.386;23.636;2023-12-20T01:27:58;94275.09;;;-7.29;87.52
83941;BME280;73976;68.386;23.636;2023-12-20T01:30:26;94227.38;;;-7.52;88.21
83941;BME280;73976;68.386;23.636;2023-12-20T01:32:55;94241.16;;;-7.53;88.05
83941;BME280;73976;68.386;23.636;2023-12-20T01:35:23;94227.50;;;-7.46;88.47
83941;BME280;73976;68.386;23.636;2023-12-20T01:37:51;94311.31;;;-6.95;89.15
83941;BME280;73976;68.386;23.636;2023-12-20T01:40:19;94290.78;;;-7.09;89.06
83941;BME280;73976;68.386;23.636;2023-12-20T01:42:47;94238.75;;;-7.32;89.27
83941;BME280;73976;68.386;23.636;2023-12-20T01:45:15;94236.81;;;-7.30;89.07
83941;BME280;73976;68.386;23.636;2023-12-20T01:47:44;94254.16;;;-7.18;87.95
83941;BME280;73976;68.386;23.636;2023-12-20T01:50:13;94257.19;;;-7.14;88.77
83941;BME280;73976;68.386;23.636;2023-12-20T01:52:42;94263.63;;;-7.18;88.48
83941;BME280;73976;68.386;23.636;2023-12-20T01:55:11;94294.19;;;-6.94;88.12
83941;BME280;73976;68.386;23.636;2023-12-20T01:57:42;94319.22;;;-6.82;88.96
83941;BME280;73976;68.386;23.636;2023-12-20T02:00:12;94294.97;;;-6.94;89.22
83941;BME280;73976;68.386;23.636;2023-12-20T02:02:43;94323.78;;;-6.69;89.20
83941;BME280;73976;68.386;23.636;2023-12-20T02:05:13;94244.34;;;-7.14;88.70
83941;BME280;73976;68.386;23.636;2023-12-20T02:07:41;94245.75;;;-7.26;88.59
83941;BME280;73976;68.386;23.636;2023-12-20T02:10:10;94322.97;;;-6.70;89.02
83941;BME280;73976;68.386;23.636;2023-12-20T02:12:38;94285.63;;;-6.87;88.67
83941;BME280;73976;68.386;23.636;2023-12-20T02:15:07;94336.78;;;-6.56;88.84
83941;BME280;73976;68.386;23.636;2023-12-20T02:17:36;94301.72;;;-6.78;88.82
83941;BME280;73976;68.386;23.636;2023-12-20T02:20:04;94256.41;;;-7.00;88.78
83941;BME280;73976;68.386;23.636;2023-12-20T02:22:33;94337.41;;;-6.54;89.09
83941;BME280;73976;68.386;23.636;2023-12-20T02:25:02;94346.63;;;-6.45;88.63
83941;BME280;73976;68.386;23.636;2023-12-20T02:27:30;94325.38;;;-6.54;89.06
83941;BME280;73976;68.386;23.636;2023-12-20T02:29:58;94294.13;;;-6.72;88.66
83941;BME280;73976;68.386;23.636;2023-12-20T02:32:27;94292.53;;;-6.73;89.41
83941;BME280;73976;68.386;23.636;2023-12-20T02:34:55;94251.81;;;-6.90;88.86
83941;BME280;73976;68.386;23.636;2023-12-20T02:37:24;94257.06;;;-6.84;89.38
83941;BME280;73976;68.386;23.636;2023-12-20T02:39:52;94315.56;;;-6.50;89.03
83941;BME280;73976;68.386;23.636;2023-12-20T02:42:21;94343.66;;;-6.34;89.50
83941;BME280;73976;68.386;23.636;2023-12-20T02:44:49;94327.34;;;-6.41;88.82
83941;BME280;73976;68.386;23.636;2023-12-20T02:47:17;94354.09;;;-6.21;89.40
83941;BME280;73976;68.386;23.636;2023-12-20T02:49:45;94359.69;;;-6.18;89.69
83941;BME280;73976;68.386;23.636;2023-12-20T02:52:13;94356.94;;;-6.16;89.71
83941;BME280;73976;68.386;23.636;2023-12-20T02:54:41;94280.44;;;-6.64;89.26
83941;BME280;73976;68.386;23.636;2023-12-20T02:57:09;94370.66;;;-6.09;90.20
83941;BME280;73976;68.386;23.636;2023-12-20T02:59:38;94287.84;;;-6.55;89.43
83941;BME280;73976;68.386;23.636;2023-12-20T03:02:06;94331.06;;;-6.29;89.45
83941;BME280;73976;68.386;23.636;2023-12-20T03:04:34;94357.97;;;-6.11;89.40
83941;BME280;73976;68.386;23.636;2023-12-20T03:07:03;94342.66;;;-6.19;88.78
83941;BME280;73976;68.386;23.636;2023-12-20T03:09:33;94355.06;;;-6.08;89.33
83941;BME280;73976;68.386;23.636;2023-12-20T03:12:21;94367.38;;;-6.03;88.66
83941;BME280;73976;68.386;23.636;2023-12-20T03:14:49;94370.56;;;-6.01;89.28
83941;BME280;73976;68.386;23.636;2023-12-20T03:17:17;94302.38;;;-6.47;88.55
83941;BME280;73976;68.386;23.636;2023-12-20T03:19:46;94332.91;;;-6.23;88.99
83941;BME280;73976;68.386;23.636;2023-12-20T03:22:14;94347.25;;;-6.14;88.96
83941;BME280;73976;68.386;23.636;2023-12-20T03:24:43;94291.69;;;-6.51;88.54
83941;BME280;73976;68.386;23.636;2023-12-20T03:27:11;94347.44;;;-6.16;88.98
83941;BME280;73976;68.386;23.636;2023-12-20T03:29:39;94165.94;;;-7.38;88.37
83941;BME280;73976;68.386;23.636;2023-12-20T03:32:07;94319.22;;;-6.45;88.35
83941;BME280;73976;68.386;23.636;2023-12-20T03:34:36;94380.56;;;-6.06;88.53
83941;BME280;73976;68.386;23.636;2023-12-20T03:37:04;94313.63;;;-6.48;88.83
83941;BME280;73976;68.386;23.636;2023-12-20T03:39:32;94331.59;;;-6.48;88.03
83941;BME280;73976;68.386;23.636;2023-12-20T03:42:01;94368.97;;;-6.31;87.96
83941;BME280;73976;68.386;23.636;2023-12-20T03:44:29;94391.63;;;-6.20;88.29
83941;BME280;73976;68.386;23.636;2023-12-20T03:46:57;94359.41;;;-6.37;89.12
83941;BME280;73976;68.386;23.636;2023-12-20T03:49:25;94402.34;;;-6.17;88.40
83941;BME280;73976;68.386;23.636;2023-12-20T03:51:53;94344.47;;;-6.56;88.09
83941;BME280;73976;68.386;23.636;2023-12-20T03:54:22;94385.66;;;-6.35;88.92
83941;BME280;73976;68.386;23.636;2023-12-20T03:56:50;94409.00;;;-6.22;88.62
83941;BME280;73976;68.386;23.636;2023-12-20T03:59:18;94352.63;;;-6.67;89.05
83941;BME280;73976;68.386;23.636;2023-12-20T04:01:46;94384.16;;;-6.44;88.64
83941;BME280;73976;68.386;23.636;2023-12-20T04:04:14;94373.16;;;-6.53;88.05
83941;BME280;73976;68.386;23.636;2023-12-20T04:06:43;94362.53;;;-6.64;88.50
83941;BME280;73976;68.386;23.636;2023-12-20T04:09:11;94395.91;;;-6.50;89.18
83941;BME280;73976;68.386;23.636;2023-12-20T04:11:39;94422.88;;;-6.31;88.82
83941;BME280;73976;68.386;23.636;2023-12-20T04:14:07;94433.50;;;-6.34;88.37
83941;BME280;73976;68.386;23.636;2023-12-20T04:16:36;94349.91;;;-6.88;88.31
83941;BME280;73976;68.386;23.636;2023-12-20T04:19:04;94403.50;;;-6.56;88.29
83941;BME280;73976;68.386;23.636;2023-12-20T04:21:32;94422.22;;;-6.48;88.83
83941;BME280;73976;68.386;23.636;2023-12-20T04:24:01;94414.41;;;-6.54;88.75
83941;BME280;73976;68.386;23.636;2023-12-20T04:26:29;94449.84;;;-6.35;88.50
83941;BME280;73976;68.386;23.636;2023-12-20T04:28:57;94429.22;;;-6.42;88.77
83941;BME280;73976;68.386;23.636;2023-12-20T04:31:25;94388.97;;;-6.64;88.01
83941;BME280;73976;68.386;23.636;2023-12-20T04:33:53;94430.97;;;-6.42;89.36
83941;BME280;73976;68.386;23.636;2023-12-20T04:36:22;94421.69;;;-6.43;89.14
83941;BME280;73976;68.386;23.636;2023-12-20T04:38:50;94368.63;;;-6.65;89.99
83941;BME280;73976;68.386;23.636;2023-12-20T04:41:18;94420.81;;;-6.36;90.72
83941;BME280;73976;68.386;23.636;2023-12-20T04:43:46;94439.44;;;-6.19;90.58
83941;BME280;73976;68.386;23.636;2023-12-20T04:46:15;94465.59;;;-6.01;91.17
83941;BME280;73976;68.386;23.636;2023-12-20T04:48:43;94465.78;;;-6.03;91.55
83941;BME280;73976;68.386;23.636;2023-12-20T04:51:11;94439.19;;;-6.10;91.63
83941;BME280;73976;68.386;23.636;2023-12-20T04:53:39;94388.59;;;-6.38;90.62
83941;BME280;73976;68.386;23.636;2023-12-20T04:56:07;94465.25;;;-5.84;90.84
83941;BME280;73976;68.386;23.636;2023-12-20T04:58:35;94398.38;;;-6.19;90.81
83941;BME280;73976;68.386;23.636;2023-12-20T05:01:06;94472.06;;;-5.76;90.75
83941;BME280;73976;68.386;23.636;2023-12-20T05:03:34;94467.28;;;-5.79;90.92
83941;BME280;73976;68.386;23.636;2023-12-20T05:06:03;94468.97;;;-5.72;90.47
83941;BME280;73976;68.386;23.636;2023-12-20T05:08:31;94448.16;;;-5.91;90.20
83941;BME280;73976;68.386;23.636;2023-12-20T05:10:59;94417.41;;;-6.14;90.73
83941;BME280;73976;68.386;23.636;2023-12-20T05:13:27;94444.19;;;-5.94;90.34
83941;BME280;73976;68.386;23.636;2023-12-20T05:16:08;94354.31;;;-6.45;89.93
83941;BME280;73976;68.386;23.636;2023-12-20T05:18:37;94459.38;;;-5.78;90.38
83941;BME280;73976;68.386;23.636;2023-12-20T05:21:05;94455.41;;;-5.80;90.38
83941;BME280;73976;68.386;23.636;2023-12-20T05:23:33;94437.78;;;-5.98;90.46
83941;BME280;73976;68.386;23.636;2023-12-20T05:26:01;94500.31;;;-5.61;89.76
83941;BME280;73976;68.386;23.636;2023-12-20T05:28:30;94471.56;;;-5.86;90.63
83941;BME280;73976;68.386;23.636;2023-12-20T05:30:58;94450.44;;;-5.96;89.89
83941;BME280;73976;68.386;23.636;2023-12-20T05:33:26;94432.91;;;-6.07;89.80
83941;BME280;73976;68.386;23.636;2023-12-20T05:35:54;94487.41;;;-5.83;89.74
83941;BME280;73976;68.386;23.636;2023-12-20T05:38:22;94444.31;;;-6.10;89.32
83941;BME280;73976;68.386;23.636;2023-12-20T05:40:51;94466.13;;;-5.91;89.40
83941;BME280;73976;68.386;23.636;2023-12-20T05:43:19;94487.66;;;-5.78;89.41
83941;BME280;73976;68.386;23.636;2023-12-20T05:45:48;94457.91;;;-6.01;89.74
83941;BME280;73976;68.386;23.636;2023-12-20T05:48:16;94518.94;;;-5.59;89.98
83941;BME280;73976;68.386;23.636;2023-12-20T05:50:44;94419.25;;;-6.22;89.28
83941;BME280;73976;68.386;23.636;2023-12-20T05:53:12;94508.91;;;-5.69;89.30
83941;BME280;73976;68.386;23.636;2023-12-20T05:55:40;94511.75;;;-5.64;88.83
83941;BME280;73976;68.386;23.636;2023-12-20T05:58:09;94457.63;;;-6.06;89.24
83941;BME280;73976;68.386;23.636;2023-12-20T06:00:37;94525.50;;;-5.57;89.50
83941;BME280;73976;68.386;23.636;2023-12-20T06:03:05;94452.66;;;-6.08;89.35
83941;BME280;73976;68.386;23.636;2023-12-20T06:05:33;94509.63;;;-5.75;89.88
83941;BME280;73976;68.386;23.636;2023-12-20T06:08:01;94505.38;;;-5.83;89.48
83941;BME280;73976;68.386;23.636;2023-12-20T06:10:30;94524.69;;;-5.72;89.25
83941;BME280;73976;68.386;23.636;2023-12-20T06:12:59;94510.13;;;-5.80;88.82
83941;BME280;73976;68.386;23.636;2023-12-20T06:15:28;94437.28;;;-6.30;88.22
83941;BME280;73976;68.386;23.636;2023-12-20T06:17:56;94516.25;;;-5.81;88.80
83941;BME280;73976;68.386;23.636;2023-12-20T06:20:24;94483.47;;;-6.08;88.93
83941;BME280;73976;68.386;23.636;2023-12-20T06:22:53;94497.53;;;-6.04;89.28
83941;BME280;73976;68.386;23.636;2023-12-20T06:25:21;94451.97;;;-6.39;88.91
83941;BME280;73976;68.386;23.636;2023-12-20T06:27:50;94526.59;;;-6.03;88.34
83941;BME280;73976;68.386;23.636;2023-12-20T06:30:18;94478.06;;;-6.35;88.48
83941;BME280;73976;68.386;23.636;2023-12-20T06:32:46;94479.41;;;-6.39;88.99
83941;BME280;73976;68.386;23.636;2023-12-20T06:35:15;94509.00;;;-6.29;88.50
83941;BME280;73976;68.386;23.636;2023-12-20T06:37:44;94460.47;;;-6.61;88.24
83941;BME280;73976;68.386;23.636;2023-12-20T06:40:12;94543.41;;;-6.15;88.06
83941;BME280;73976;68.386;23.636;2023-12-20T06:42:45;94517.91;;;-6.39;87.46
83941;BME280;73976;68.386;23.636;2023-12-20T06:45:28;94496.50;;;-6.54;87.87
83941;BME280;73976;68.386;23.636;2023-12-20T06:47:56;94537.75;;;-6.33;87.77
83941;BME280;73976;68.386;23.636;2023-12-20T06:50:24;94527.19;;;-6.38;87.17
83941;BME280;73976;68.386;23.636;2023-12-20T06:52:53;94516.00;;;-6.68;86.83
83941;BME280;73976;68.386;23.636;2023-12-20T06:55:21;94501.72;;;-6.93;85.37
83941;BME280;73976;68.386;23.636;2023-12-20T06:57:49;94536.78;;;-6.85;85.08
83941;BME280;73976;68.386;23.636;2023-12-20T07:00:18;94495.28;;;-7.19;85.46
83941;BME280;73976;68.386;23.636;2023-12-20T07:02:47;94540.22;;;-7.01;86.54
83941;BME280;73976;68.386;23.636;2023-12-20T07:05:17;94524.63;;;-7.22;85.75
83941;BME280;73976;68.386;23.636;2023-12-20T07:07:48;94528.75;;;-7.21;85.88
83941;BME280;73976;68.386;23.636;2023-12-20T07:10:17;94484.88;;;-7.56;86.82
83941;BME280;73976;68.386;23.636;2023-12-20T07:12:45;94531.22;;;-7.35;85.88
83941;BME280;73976;68.386;23.636;2023-12-20T07:15:13;94549.81;;;-7.33;86.56
83941;BME280;73976;68.386;23.636;2023-12-20T07:17:42;94489.72;;;-7.78;85.61
83941;BME280;73976;68.386;23.636;2023-12-20T07:20:12;94516.28;;;-7.71;85.01
83941;BME280;73976;68.386;23.636;2023-12-20T07:22:40;94513.44;;;-7.84;84.61
83941;BME280;73976;68.386;23.636;2023-12-20T07:25:08;94549.28;;;-7.76;82.61
83941;BME280;73976;68.386;23.636;2023-12-20T07:27:36;94565.28;;;-7.82;84.99
83941;BME280;73976;68.386;23.636;2023-12-20T07:30:05;94509.19;;;-8.39;82.70
83941;BME280;73976;68.386;23.636;2023-12-20T07:32:34;94478.94;;;-8.76;84.11
83941;BME280;73976;68.386;23.636;2023-12-20T07:35:02;94535.88;;;-8.58;83.68
83941;BME280;73976;68.386;23.636;2023-12-20T07:37:31;94537.28;;;-8.71;83.16
83941;BME280;73976;68.386;23.636;2023-12-20T07:39:59;94513.13;;;-8.93;83.59
83941;BME280;73976;68.386;23.636;2023-12-20T07:42:27;94585.25;;;-8.65;83.98
83941;BME280;73976;68.386;23.636;2023-12-20T07:44:56;94580.94;;;-8.65;85.58
83941;BME280;73976;68.386;23.636;2023-12-20T07:47:24;94589.88;;;-8.69;83.89
83941;BME280;73976;68.386;23.636;2023-12-20T07:49:53;94509.53;;;-9.24;84.86
83941;BME280;73976;68.386;23.636;2023-12-20T07:52:22;94544.09;;;-9.04;84.14
83941;BME280;73976;68.386;23.636;2023-12-20T07:54:51;94528.22;;;-9.23;84.73
83941;BME280;73976;68.386;23.636;2023-12-20T07:57:19;94606.78;;;-8.76;84.62
83941;BME280;73976;68.386;23.636;2023-12-20T07:59:48;94565.41;;;-9.21;82.53
83941;BME280;73976;68.386;23.636;2023-12-20T08:02:16;94614.06;;;-9.05;80.68
83941;BME280;73976;68.386;23.636;2023-12-20T08:04:44;94610.47;;;-9.20;81.48
83941;BME280;73976;68.386;23.636;2023-12-20T08:07:12;94569.44;;;-9.52;83.69
83941;BME280;73976;68.386;23.636;2023-12-20T08:09:41;94584.81;;;-9.36;84.78
83941;BME280;73976;68.386;23.636;2023-12-20T08:12:10;94591.56;;;-9.35;84.51
83941;BME280;73976;68.386;23.636;2023-12-20T08:14:39;94576.19;;;-9.43;84.25
83941;BME280;73976;68.386;23.636;2023-12-20T08:17:07;94559.16;;;-9.68;82.54
83941;BME280;73976;68.386;23.636;2023-12-20T08:19:35;94599.78;;;-9.49;82.22
83941;BME280;73976;68.386;23.636;2023-12-20T08:22:03;94585.97;;;-9.64;81.33
83941;BME280;73976;68.386;23.636;2023-12-20T08:24:32;94570.50;;;-9.88;82.06
83941;BME280;73976;68.386;23.636;2023-12-20T08:27:00;94579.41;;;-9.92;80.15
83941;BME280;73976;68.386;23.636;2023-12-20T08:29:28;94631.53;;;-9.77;81.57
83941;BME280;73976;68.386;23.636;2023-12-20T08:31:56;94633.47;;;-9.89;81.67
83941;BME280;73976;68.386;23.636;2023-12-20T08:34:24;94582.34;;;-10.30;82.25
83941;BME280;73976;68.386;23.636;2023-12-20T08:36:53;94555.97;;;-10.56;80.24
83941;BME280;73976;68.386;23.636;2023-12-20T08:39:21;94589.19;;;-10.48;80.21
83941;BME280;73976;68.386;23.636;2023-12-20T08:41:49;94639.22;;;-10.30;79.99
83941;BME280;73976;68.386;23.636;2023-12-20T08:44:17;94595.56;;;-10.79;79.46
83941;BME280;73976;68.386;23.636;2023-12-20T08:46:45;94631.41;;;-10.63;80.41
83941;BME280;73976;68.386;23.636;2023-12-20T08:49:14;94599.63;;;-10.86;81.75
83941;BME280;73976;68.386;23.636;2023-12-20T08:51:42;94631.72;;;-10.66;80.47
83941;BME280;73976;68.386;23.636;2023-12-20T08:54:10;94646.13;;;-10.57;81.92
83941;BME280;73976;68.386;23.636;2023-12-20T08:56:41;94618.03;;;-10.92;76.50
83941;BME280;73976;68.386;23.636;2023-12-20T08:59:09;94617.75;;;-11.16;78.05
83941;BME280;73976;68.386;23.636;2023-12-20T09:01:38;94605.00;;;-11.43;77.89
83941;BME280;73976;68.386;23.636;2023-12-20T09:04:06;94601.09;;;-11.65;77.30
83941;BME280;73976;68.386;23.636;2023-12-20T09:06:35;94609.97;;;-11.79;78.31
83941;BME280;73976;68.386;23.636;2023-12-20T09:09:03;94590.06;;;-12.02;78.18
83941;BME280;73976;68.386;23.636;2023-12-20T09:11:31;94545.84;;;-12.38;77.60
83941;BME280;73976;68.386;23.636;2023-12-20T09:14:00;94645.88;;;-11.91;76.84
83941;BME280;73976;68.386;23.636;2023-12-20T09:16:28;94585.59;;;-12.56;76.44
83941;BME280;73976;68.386;23.636;2023-12-20T09:18:56;94613.28;;;-12.53;76.56
83941;BME280;73976;68.386;23.636;2023-12-20T09:21:24;94657.41;;;-12.44;77.16
83941;BME280;73976;68.386;23.636;2023-12-20T09:23:53;94638.50;;;-12.70;76.46
83941;BME280;73976;68.386;23.636;2023-12-20T09:26:21;94597.47;;;-13.04;75.59
83941;BME280;73976;68.386;23.636;2023-12-20T09:28:49;94679.69;;;-12.67;76.75
83941;BME280;73976;68.386;23.636;2023-12-20T09:31:17;94652.00;;;-12.89;75.35
83941;BME280;73976;68.386;23.636;2023-12-20T09:33:45;94674.59;;;-12.86;76.00
83941;BME280;73976;68.386;23.636;2023-12-20T09:36:13;94596.16;;;-13.47;75.44
83941;BME280;73976;68.386;23.636;2023-12-20T09:38:42;94674.94;;;-13.09;77.03
83941;BME280;73976;68.386;23.636;2023-12-20T09:41:12;94669.34;;;-13.13;78.03
83941;BME280;73976;68.386;23.636;2023-12-20T09:43:41;94645.88;;;-13.35;77.60
83941;BME280;73976;68.386;23.636;2023-12-20T09:46:11;94562.91;;;-13.84;77.49
83941;BME280;73976;68.386;23.636;2023-12-20T09:48:43;94596.16;;;-13.77;76.33
83941;BME280;73976;68.386;23.636;2023-12-20T09:51:12;94643.75;;;-13.60;72.95
83941;BME280;73976;68.386;23.636;2023-12-20T09:53:41;94675.81;;;-13.59;75.81
83941;BME280;73976;68.386;23.636;2023-12-20T09:56:09;94667.03;;;-13.76;73.72
83941;BME280;73976;68.386;23.636;2023-12-20T09:58:38;94644.44;;;-14.09;73.67
83941;BME280;73976;68.386;23.636;2023-12-20T10:01:07;94617.50;;;-14.31;76.59
83941;BME280;73976;68.386;23.636;2023-12-20T10:03:37;94590.25;;;-14.59;74.43
83941;BME280;73976;68.386;23.636;2023-12-20T10:06:08;94576.75;;;-14.80;74.05
83941;BME280;73976;68.386;23.636;2023-12-20T10:08:37;94623.06;;;-14.68;73.99
83941;BME280;73976;68.386;23.636;2023-12-20T10:11:05;94677.72;;;-14.34;74.91
83941;BME280;73976;68.386;23.636;2023-12-20T10:13:33;94667.44;;;-14.53;75.00
83941;BME280;73976;68.386;23.636;2023-12-20T10:16:02;94672.28;;;-14.50;74.62
83941;BME280;73976;68.386;23.636;2023-12-20T10:18:30;94680.47;;;-14.58;74.31
83941;BME280;73976;68.386;23.636;2023-12-20T10:21:06;94678.53;;;-14.65;75.25
83941;BME280;73976;68.386;23.636;2023-12-20T10:23:38;94666.22;;;-14.70;76.47
83941;BME280;73976;68.386;23.636;2023-12-20T10:26:07;94643.34;;;-14.79;77.98
83941;BME280;73976;68.386;23.636;2023-12-20T10:28:35;94697.44;;;-14.38;77.11
83941;BME280;73976;68.386;23.636;2023-12-20T10:31:05;94624.25;;;-14.72;77.14
83941;BME280;73976;68.386;23.636;2023-12-20T10:33:33;94689.38;;;-14.22;77.83
83941;BME280;73976;68.386;23.636;2023-12-20T10:36:02;94659.56;;;-14.39;80.80
83941;BME280;73976;68.386;23.636;2023-12-20T10:38:31;94690.91;;;-14.20;79.52
83941;BME280;73976;68.386;23.636;2023-12-20T10:41:01;94702.97;;;-14.12;77.85
83941;BME280;73976;68.386;23.636;2023-12-20T10:43:32;94694.91;;;-14.17;77.03
83941;BME280;73976;68.386;23.636;2023-12-20T10:46:03;94713.19;;;-14.34;75.35
83941;BME280;73976;68.386;23.636;2023-12-20T10:48:31;94710.03;;;-14.47;74.42
83941;BME280;73976;68.386;23.636;2023-12-20T10:51:01;94684.06;;;-14.71;75.18
83941;BME280;73976;68.386;23.636;2023-12-20T10:53:30;94707.78;;;-14.72;75.66
83941;BME280;73976;68.386;23.636;2023-12-20T10:56:00;94653.59;;;-15.23;73.26
83941;BME280;73976;68.386;23.636;2023-12-20T10:58:29;94708.88;;;-14.97;74.35
83941;BME280;73976;68.386;23.636;2023-12-20T11:01:01;94713.81;;;-15.06;74.39
83941;BME280;73976;68.386;23.636;2023-12-20T11:03:35;94708.31;;;-15.22;73.86
83941;BME280;73976;68.386;23.636;2023-12-20T11:06:15;94716.38;;;-15.39;73.53
83941;BME280;73976;68.386;23.636;2023-12-20T11:08:51;94691.88;;;-15.72;72.95
83941;BME280;73976;68.386;23.636;2023-12-20T11:11:27;94722.91;;;-15.59;74.41
83941;BME280;73976;68.386;23.636;2023-12-20T11:14:04;94700.81;;;-15.90;73.37
83941;BME280;73976;68.386;23.636;2023-12-20T11:16:37;94731.03;;;-15.77;72.58
83941;BME280;73976;68.386;23.636;2023-12-20T11:19:18;94639.50;;;-16.49;72.73
83941;BME280;73976;68.386;23.636;2023-12-20T11:21:46;94669.78;;;-16.38;73.71
83941;BME280;73976;68.386;23.636;2023-12-20T11:24:15;94710.94;;;-16.25;73.61
83941;BME280;73976;68.386;23.636;2023-12-20T11:26:47;94687.94;;;-16.44;74.61
83941;BME280;73976;68.386;23.636;2023-12-20T11:32:00;94689.53;;;-16.43;74.29
83941;BME280;73976;68.386;23.636;2023-12-20T11:34:29;94729.16;;;-16.32;74.25
83941;BME280;73976;68.386;23.636;2023-12-20T11:37:02;94646.84;;;-16.80;73.83
83941;BME280;73976;68.386;23.636;2023-12-20T11:39:31;94737.41;;;-16.30;74.11
83941;BME280;73976;68.386;23.636;2023-12-20T11:42:05;94752.72;;;-16.21;74.65
83941;BME280;73976;68.386;23.636;2023-12-20T11:44:34;94707.88;;;-16.52;76.27
83941;BME280;73976;68.386;23.636;2023-12-20T11:47:04;94754.94;;;-16.16;77.50
83941;BME280;73976;68.386;23.636;2023-12-20T11:49:31;94755.53;;;-16.13;77.41
83941;BME280;73976;68.386;23.636;2023-12-20T11:51:59;94722.84;;;-16.27;77.70
83941;BME280;73976;68.386;23.636;2023-12-20T11:54:30;94755.44;;;-16.00;77.88
83941;BME280;73976;68.386;23.636;2023-12-20T11:56:58;94697.59;;;-16.27;78.83
83941;BME280;73976;68.386;23.636;2023-12-20T11:59:26;94717.19;;;-16.07;78.75
83941;BME280;73976;68.386;23.636;2023-12-20T12:01:54;94725.72;;;-15.97;79.33
83941;BME280;73976;68.386;23.636;2023-12-20T12:04:28;94759.47;;;-15.63;78.97
83941;BME280;73976;68.386;23.636;2023-12-20T12:06:56;94737.81;;;-15.67;78.59
83941;BME280;73976;68.386;23.636;2023-12-20T12:09:24;94746.25;;;-15.55;79.18
83941;BME280;73976;68.386;23.636;2023-12-20T12:11:52;94753.41;;;-15.38;79.93
83941;BME280;73976;68.386;23.636;2023-12-20T12:14:20;94759.47;;;-15.19;81.01
83941;BME280;73976;68.386;23.636;2023-12-20T12:16:48;94741.91;;;-15.20;80.00
83941;BME280;73976;68.386;23.636;2023-12-20T12:19:25;94687.66;;;-15.38;80.76
83941;BME280;73976;68.386;23.636;2023-12-20T12:22:11;94748.06;;;-14.91;81.84
83941;BME280;73976;68.386;23.636;2023-12-20T12:24:44;94782.34;;;-14.65;81.58
83941;BME280;73976;68.386;23.636;2023-12-20T12:27:13;94752.66;;;-14.85;80.27
83941;BME280;73976;68.386;23.636;2023-12-20T12:30:00;94788.06;;;-14.52;80.74
83941;BME280;73976;68.386;23.636;2023-12-20T12:32:28;94786.94;;;-14.48;80.81
83941;BME280;73976;68.386;23.636;2023-12-20T12:34:56;94773.00;;;-14.54;80.72
83941;BME280;73976;68.386;23.636;2023-12-20T12:37:24;94755.63;;;-14.58;81.91
83941;BME280;73976;68.386;23.636;2023-12-20T12:39:54;94581.81;;;-15.54;82.12
83941;BME280;73976;68.386;23.636;2023-12-20T12:42:22;94739.69;;;-14.38;82.52
83941;BME280;73976;68.386;23.636;2023-12-20T12:44:53;94706.38;;;-14.54;82.22
83941;BME280;73976;68.386;23.636;2023-12-20T12:47:21;94730.03;;;-14.33;83.11
83941;BME280;73976;68.386;23.636;2023-12-20T12:49:51;94600.41;;;-15.01;83.02
83941;BME280;73976;68.386;23.636;2023-12-20T12:52:20;94793.09;;;-13.67;82.42
83941;BME280;73976;68.386;23.636;2023-12-20T12:54:49;94747.97;;;-13.84;81.80
83941;BME280;73976;68.386;23.636;2023-12-20T12:57:17;94756.56;;;-13.76;82.89
83941;BME280;73976;68.386;23.636;2023-12-20T12:59:45;94798.91;;;-13.35;85.61